Terminal Aerodrome Forecast
Issued by NWS Wichita, KS

Home | Current Version | Previous Version | Graphics & Text | Print | Product List | Glossary On
Versions: 1 2 3 4 5 6 7 8 9 10 11 12 13 14 15 16 17 18
000
FTUS43 KICT 270713 AAB
TAFICT
TAF AMD
KICT 270713Z 2707/2806 04017G22KT P6SM SCT015 OVC180
     FM270900 02017G22KT P6SM OVC013
     FM271300 02013KT P6SM OVC015
     FM271500 02013KT P6SM BKN025 OVC150
     FM271700 02009KT P6SM BKN035=

USA.gov is the U.S. government's official web portal to all federal, state and local government web resources and services.